Time,TemperatureF,DewpointF,PressureIn,WindDirection,WindDirectionDegrees,WindSpeedMPH,WindSpeedGustMPH,Humidity,HourlyPrecipIn,Conditions,Clouds,dailyrainin,SolarRadiationWatts/m^2,SoftwareType,DateUTC
2013-04-06 00:11:00,32.0,22.0,30.14,WSW,257,8.0,-999.0,68,-99.99,,,0.00,0,weatherlink.com 1.10,2013-04-06 04:11:00,
2013-04-06 00:26:00,31.8,23.0,30.14,WSW,257,6.0,-999.0,69,-99.99,,,0.00,0,weatherlink.com 1.10,2013-04-06 04:26:00,
2013-04-06 00:41:00,31.6,22.0,30.15,WNW,286,9.0,-999.0,69,-99.99,,,0.00,0,weatherlink.com 1.10,2013-04-06 04:41:00,
2013-04-06 00:56:00,31.4,22.0,30.16,West,281,8.0,-999.0,69,-99.99,,,0.00,0,weatherlink.com 1.10,2013-04-06 04:56:00,
2013-04-06 01:11:00,31.2,22.0,30.16,WNW,294,8.0,-999.0,69,-99.99,,,0.00,0,weatherlink.com 1.10,2013-04-06 05:11:00,
2013-04-06 01:26:00,31.1,22.0,30.17,West,275,5.0,-999.0,69,-99.99,,,0.00,0,weatherlink.com 1.10,2013-04-06 05:26:00,
2013-04-06 01:56:00,30.7,22.0,30.18,West,278,5.0,-999.0,69,-99.99,,,0.00,0,weatherlink.com 1.10,2013-04-06 05:56:00,
2013-04-06 02:11:00,30.4,22.0,30.19,West,264,4.0,-999.0,70,-99.99,,,0.00,0,weatherlink.com 1.10,2013-04-06 06:11:00,
2013-04-06 02:41:00,29.9,22.0,30.20,WSW,256,4.0,-999.0,71,-99.99,,,0.00,0,weatherlink.com 1.10,2013-04-06 06:41:00,
2013-04-06 02:56:00,29.7,21.0,30.20,WSW,246,4.0,-999.0,71,-99.99,,,0.00,0,weatherlink.com 1.10,2013-04-06 06:56:00,
2013-04-06 03:11:00,29.5,22.0,30.21,WSW,241,5.0,-999.0,72,-99.99,,,0.00,0,weatherlink.com 1.10,2013-04-06 07:11:00,
2013-04-06 03:26:00,29.5,21.0,30.21,WSW,257,3.0,-999.0,71,-99.99,,,0.00,0,weatherlink.com 1.10,2013-04-06 07:26:00,
2013-04-06 03:56:00,29.0,20.0,30.22,WSW,250,0.0,-999.0,69,-99.99,,,0.00,0,weatherlink.com 1.10,2013-04-06 07:56:00,
2013-04-06 04:12:00,29.3,19.0,30.23,West,271,0.0,-999.0,65,-99.99,,,0.00,0,weatherlink.com 1.10,2013-04-06 08:12:00,
2013-04-06 04:27:00,29.4,18.0,30.23,West,272,2.0,-999.0,62,-99.99,,,0.00,0,weatherlink.com 1.10,2013-04-06 08:27:00,
2013-04-06 04:42:00,29.5,17.0,30.24,West,273,0.0,-999.0,61,-99.99,,,0.00,0,weatherlink.com 1.10,2013-04-06 08:42:00,
2013-04-06 04:57:00,29.5,17.0,30.24,West,273,0.0,-999.0,60,-99.99,,,0.00,0,weatherlink.com 1.10,2013-04-06 08:57:00,
2013-04-06 05:12:00,29.4,17.0,30.24,West,273,2.0,-999.0,60,-99.99,,,0.00,0,weatherlink.com 1.10,2013-04-06 09:12:00,
2013-04-06 05:27:00,29.1,16.0,30.25,West,273,0.0,-999.0,59,-99.99,,,0.00,0,weatherlink.com 1.10,2013-04-06 09:27:00,
2013-04-06 05:42:00,28.7,16.0,30.25,West,273,1.0,-999.0,59,-99.99,,,0.00,0,weatherlink.com 1.10,2013-04-06 09:42:00,
2013-04-06 05:57:00,28.4,16.0,30.25,West,273,0.0,-999.0,60,-99.99,,,0.00,0,weatherlink.com 1.10,2013-04-06 09:57:00,
2013-04-06 06:12:00,28.1,16.0,30.26,West,273,0.0,-999.0,61,-99.99,,,0.00,0,weatherlink.com 1.10,2013-04-06 10:12:00,
2013-04-06 06:27:00,27.0,16.0,30.27,West,273,0.0,-999.0,64,-99.99,,,0.00,0,weatherlink.com 1.10,2013-04-06 10:27:00,
2013-04-06 06:42:00,26.4,16.0,30.28,West,273,0.0,-999.0,65,-99.99,,,0.00,0,weatherlink.com 1.10,2013-04-06 10:42:00,
2013-04-06 06:57:00,25.9,17.0,30.29,SW,220,0.0,-999.0,69,-99.99,,,0.00,12,weatherlink.com 1.10,2013-04-06 10:57:00,
2013-04-06 07:12:00,26.0,18.0,30.29,SW,220,0.0,-999.0,71,-99.99,,,0.00,28,weatherlink.com 1.10,2013-04-06 11:12:00,
2013-04-06 07:27:00,26.3,18.0,30.29,SW,220,0.0,-999.0,72,-99.99,,,0.00,63,weatherlink.com 1.10,2013-04-06 11:27:00,
2013-04-06 07:42:00,27.0,19.0,30.30,SW,220,0.0,-999.0,72,-99.99,,,0.00,111,weatherlink.com 1.10,2013-04-06 11:42:00,
2013-04-06 07:57:00,28.1,20.0,30.30,SW,223,0.0,-999.0,71,-99.99,,,0.00,165,weatherlink.com 1.10,2013-04-06 11:57:00,
2013-04-06 08:12:00,28.9,20.0,30.32,SW,223,1.0,-999.0,69,-99.99,,,0.00,221,weatherlink.com 1.10,2013-04-06 12:12:00,
2013-04-06 08:27:00,30.2,20.0,30.32,SW,223,1.0,-999.0,67,-99.99,,,0.00,269,weatherlink.com 1.10,2013-04-06 12:27:00,
2013-04-06 08:42:00,31.8,20.0,30.33,WNW,289,3.0,-999.0,62,-99.99,,,0.00,320,weatherlink.com 1.10,2013-04-06 12:42:00,
2013-04-06 08:57:00,33.0,18.0,30.33,NNW,348,4.0,-999.0,54,-99.99,,,0.00,371,weatherlink.com 1.10,2013-04-06 12:57:00,
2013-04-06 09:13:00,33.8,17.0,30.33,North,355,2.0,-999.0,50,-99.99,,,0.00,422,weatherlink.com 1.10,2013-04-06 13:13:00,
2013-04-06 09:28:00,34.0,17.0,30.33,NW,323,11.0,-999.0,49,-99.99,,,0.00,471,weatherlink.com 1.10,2013-04-06 13:28:00,
2013-04-06 09:43:00,34.3,15.0,30.33,ENE,62,3.0,-999.0,46,-99.99,,,0.00,517,weatherlink.com 1.10,2013-04-06 13:43:00,
2013-04-06 09:59:00,35.3,15.0,30.34,East,99,8.0,-999.0,44,-99.99,,,0.00,561,weatherlink.com 1.10,2013-04-06 13:59:00,
2013-04-06 10:13:00,35.0,15.0,30.34,NW,311,1.0,-999.0,44,-99.99,,,0.00,601,weatherlink.com 1.10,2013-04-06 14:13:00,
2013-04-06 10:28:00,35.7,16.0,30.34,North,350,3.0,-999.0,44,-99.99,,,0.00,643,weatherlink.com 1.10,2013-04-06 14:28:00,
2013-04-06 10:43:00,36.6,15.0,30.34,WNW,294,1.0,-999.0,42,-99.99,,,0.00,675,weatherlink.com 1.10,2013-04-06 14:43:00,
2013-04-06 10:58:00,37.0,17.0,30.34,East,91,8.0,-999.0,44,-99.99,,,0.00,712,weatherlink.com 1.10,2013-04-06 14:58:00,
2013-04-06 11:13:00,38.0,17.0,30.34,NW,309,0.0,-999.0,43,-99.99,,,0.00,740,weatherlink.com 1.10,2013-04-06 15:13:00,
2013-04-06 11:28:00,38.6,17.0,30.34,ENE,71,2.0,-999.0,41,-99.99,,,0.00,770,weatherlink.com 1.10,2013-04-06 15:28:00,
2013-04-06 11:43:00,37.5,16.0,30.33,NE,42,6.0,-999.0,42,-99.99,,,0.00,795,weatherlink.com 1.10,2013-04-06 15:43:00,
2013-04-06 11:58:00,38.3,16.0,30.33,NE,48,1.0,-999.0,41,-99.99,,,0.00,814,weatherlink.com 1.10,2013-04-06 15:58:00,
2013-04-06 12:13:00,39.0,16.0,30.32,ENE,59,0.0,-999.0,39,-99.99,,,0.00,833,weatherlink.com 1.10,2013-04-06 16:13:00,
2013-04-06 12:43:00,39.9,16.0,30.31,East,99,2.0,-999.0,38,-99.99,,,0.00,856,weatherlink.com 1.10,2013-04-06 16:43:00,
2013-04-06 13:14:00,41.7,16.0,30.31,NE,56,4.0,-999.0,36,-99.99,,,0.00,865,weatherlink.com 1.10,2013-04-06 17:14:00,
2013-04-06 13:28:00,41.3,17.0,30.30,ESE,113,2.0,-999.0,37,-99.99,,,0.00,856,weatherlink.com 1.10,2013-04-06 17:28:00,
2013-04-06 13:43:00,40.9,18.0,30.30,ENE,64,4.0,-999.0,40,-99.99,,,0.00,853,weatherlink.com 1.10,2013-04-06 17:43:00,
2013-04-06 14:14:00,42.4,18.0,30.30,ESE,115,9.0,-999.0,38,-99.99,,,0.00,844,weatherlink.com 1.10,2013-04-06 18:14:00,
2013-04-06 14:29:00,43.1,17.0,30.29,ESE,114,5.0,-999.0,35,-99.99,,,0.00,784,weatherlink.com 1.10,2013-04-06 18:29:00,
2013-04-06 14:59:00,44.1,18.0,30.28,SSE,160,6.0,-999.0,35,-99.99,,,0.00,782,weatherlink.com 1.10,2013-04-06 18:59:00,
2013-04-06 15:29:00,44.2,19.0,30.25,SE,146,8.0,-999.0,37,-99.99,,,0.00,714,weatherlink.com 1.10,2013-04-06 19:29:00,
2013-04-06 15:44:00,43.6,19.0,30.25,SE,126,6.0,-999.0,38,-99.99,,,0.00,686,weatherlink.com 1.10,2013-04-06 19:44:00,
2013-04-06 15:59:00,44.5,20.0,30.24,ESE,119,5.0,-999.0,37,-99.99,,,0.00,650,weatherlink.com 1.10,2013-04-06 19:59:00,
2013-04-06 16:14:00,43.9,19.0,30.24,South,171,2.0,-999.0,37,-99.99,,,0.00,617,weatherlink.com 1.10,2013-04-06 20:14:00,
2013-04-06 16:29:00,44.2,18.0,30.23,SE,127,5.0,-999.0,35,-99.99,,,0.00,568,weatherlink.com 1.10,2013-04-06 20:29:00,
2013-04-06 16:44:00,44.5,16.0,30.22,ESE,110,0.0,-999.0,32,-99.99,,,0.00,526,weatherlink.com 1.10,2013-04-06 20:44:00,
2013-04-06 16:59:00,44.4,16.0,30.21,East,83,4.0,-999.0,32,-99.99,,,0.00,452,weatherlink.com 1.10,2013-04-06 20:59:00,
2013-04-06 17:14:00,45.1,18.0,30.22,ENE,61,6.0,-999.0,34,-99.99,,,0.00,376,weatherlink.com 1.10,2013-04-06 21:14:00,
2013-04-06 17:29:00,45.0,20.0,30.21,SE,132,9.0,-999.0,37,-99.99,,,0.00,304,weatherlink.com 1.10,2013-04-06 21:29:00,
2013-04-06 17:44:00,44.6,18.0,30.20,East,84,5.0,-999.0,35,-99.99,,,0.00,211,weatherlink.com 1.10,2013-04-06 21:44:00,
2013-04-06 17:59:00,44.6,18.0,30.20,ENE,77,7.0,-999.0,35,-99.99,,,0.00,163,weatherlink.com 1.10,2013-04-06 21:59:00,
2013-04-06 18:14:00,44.3,18.0,30.20,East,98,5.0,-999.0,35,-99.99,,,0.00,113,weatherlink.com 1.10,2013-04-06 22:14:00,
2013-04-06 18:44:00,43.8,17.0,30.19,ESE,118,7.0,-999.0,34,-99.99,,,0.00,46,weatherlink.com 1.10,2013-04-06 22:44:00,
2013-04-06 18:59:00,43.8,16.0,30.19,East,85,5.0,-999.0,33,-99.99,,,0.00,30,weatherlink.com 1.10,2013-04-06 22:59:00,
2013-04-06 19:29:00,43.3,18.0,30.18,East,89,4.0,-999.0,37,-99.99,,,0.00,5,weatherlink.com 1.10,2013-04-06 23:29:00,
2013-04-06 19:44:00,43.3,19.0,30.17,ESE,109,4.0,-999.0,38,-99.99,,,0.00,0,weatherlink.com 1.10,2013-04-06 23:44:00,
2013-04-06 19:59:00,43.2,20.0,30.17,East,98,5.0,-999.0,39,-99.99,,,0.00,0,weatherlink.com 1.10,2013-04-06 23:59:00,
2013-04-06 20:14:00,43.1,21.0,30.17,East,86,4.0,-999.0,41,-99.99,,,0.00,0,weatherlink.com 1.10,2013-04-07 00:14:00,
2013-04-06 20:44:00,42.9,19.0,30.15,East,97,6.0,-999.0,39,-99.99,,,0.00,0,weatherlink.com 1.10,2013-04-07 00:44:00,
2013-04-06 20:59:00,42.7,19.0,30.15,East,84,6.0,-999.0,39,-99.99,,,0.00,0,weatherlink.com 1.10,2013-04-07 00:59:00,
2013-04-06 21:29:00,42.3,19.0,30.14,ESE,105,2.0,-999.0,40,-99.99,,,0.00,0,weatherlink.com 1.10,2013-04-07 01:29:00,
2013-04-06 21:44:00,42.4,21.0,30.14,ESE,109,6.0,-999.0,42,-99.99,,,0.00,0,weatherlink.com 1.10,2013-04-07 01:44:00,
2013-04-06 21:59:00,42.6,21.0,30.14,ESE,103,6.0,-999.0,42,-99.99,,,0.00,0,weatherlink.com 1.10,2013-04-07 01:59:00,
2013-04-06 22:14:00,42.9,21.0,30.13,ESE,118,9.0,-999.0,41,-99.99,,,0.00,0,weatherlink.com 1.10,2013-04-07 02:14:00,
2013-04-06 22:29:00,42.7,21.0,30.12,ESE,121,8.0,-999.0,42,-99.99,,,0.00,0,weatherlink.com 1.10,2013-04-07 02:29:00,
2013-04-06 22:44:00,42.7,20.0,30.11,East,98,5.0,-999.0,41,-99.99,,,0.00,0,weatherlink.com 1.10,2013-04-07 02:44:00,
2013-04-06 22:59:00,42.8,20.0,30.11,East,89,5.0,-999.0,41,-99.99,,,0.00,0,weatherlink.com 1.10,2013-04-07 02:59:00,
2013-04-06 23:14:00,42.9,20.0,30.10,ESE,108,6.0,-999.0,40,-99.99,,,0.00,0,weatherlink.com 1.10,2013-04-07 03:14:00,
2013-04-06 23:29:00,42.9,20.0,30.09,ESE,109,9.0,-999.0,40,-99.99,,,0.00,0,weatherlink.com 1.10,2013-04-07 03:29:00,
2013-04-06 23:44:00,43.2,20.0,30.09,ESE,113,6.0,-999.0,40,-99.99,,,0.00,0,weatherlink.com 1.10,2013-04-07 03:44:00,
2013-04-06 23:59:00,43.4,20.0,30.07,East,100,5.0,-999.0,40,-99.99,,,0.00,0,weatherlink.com 1.10,2013-04-07 03:59:00,